Time;durP1;ratioP1;P1;durP2;ratioP2;P2;SDS_P1;SDS_P2;PMS_P1;PMS_P2;Temp;Humidity;BMP_temperature;BMP_pressure;BME280_temperature;BME280_humidity;BME280_pressure;Samples;Min_cycle;Max_cycle;Signal;HPM_P1;HPM_P2
2022/08/21 00:02:26;;;;;;;4.65;4.03;;;30.80;99.90;;;;;;5073124;28;20024;-49
2022/08/21 00:04:52;;;;;;;4.93;4.07;;;30.90;99.90;;;;;;5072814;28;20021;-50
2022/08/21 00:07:19;;;;;;;4.30;3.58;;;30.80;99.90;;;;;;5072807;28;20115;-49
2022/08/21 00:09:45;;;;;;;6.00;3.60;;;30.80;99.90;;;;;;5073160;28;20032;-49
2022/08/21 00:12:11;;;;;;;4.55;3.40;;;30.80;99.90;;;;;;5072873;28;20432;-50
2022/08/21 00:14:37;;;;;;;4.03;3.38;;;30.80;99.90;;;;;;5073034;28;20496;-50
2022/08/21 00:17:04;;;;;;;4.78;3.85;;;30.70;99.90;;;;;;5072893;28;20028;-50
2022/08/21 00:19:31;;;;;;;5.43;4.00;;;30.80;99.90;;;;;;5072625;28;20044;-50
2022/08/21 00:21:57;;;;;;;3.88;3.40;;;30.80;99.90;;;;;;5072674;28;20028;-50
2022/08/21 00:24:24;;;;;;;4.43;3.42;;;30.80;99.90;;;;;;5072789;28;20025;-50
2022/08/21 00:26:51;;;;;;;3.80;3.28;;;30.80;99.90;;;;;;5072776;28;20027;-50
2022/08/21 00:29:17;;;;;;;5.70;3.75;;;30.70;99.90;;;;;;5072722;28;20047;-50
2022/08/21 00:31:44;;;;;;;5.75;4.00;;;30.80;99.90;;;;;;5072528;28;20126;-50
2022/08/21 00:34:11;;;;;;;4.97;3.40;;;30.70;99.90;;;;;;5072688;28;20035;-50
2022/08/21 00:36:37;;;;;;;4.85;3.70;;;30.70;99.90;;;;;;5072583;28;20028;-50
2022/08/21 00:39:06;;;;;;;4.28;3.25;;;30.70;99.90;;;;;;5072505;28;20056;-52
2022/08/21 00:41:32;;;;;;;4.18;3.60;;;30.70;99.90;;;;;;5072437;28;20059;-51
2022/08/21 00:43:58;;;;;;;4.95;3.58;;;30.70;99.90;;;;;;5072295;28;20025;-50
2022/08/21 00:46:24;;;;;;;4.53;3.40;;;30.60;99.90;;;;;;5072198;28;20025;-51
2022/08/21 00:48:50;;;;;;;3.88;3.47;;;30.60;99.90;;;;;;5072259;28;20028;-51
2022/08/21 00:51:25;;;;;;;4.50;3.33;;;30.60;99.90;;;;;;5072083;28;20400;-50
2022/08/21 00:53:55;;;;;;;3.78;3.45;;;30.60;99.90;;;;;;5072214;28;20036;-50
2022/08/21 00:56:23;;;;;;;3.45;3.10;;;30.60;99.90;;;;;;5072141;28;20025;-50
2022/08/21 00:58:51;;;;;;;5.20;3.25;;;30.60;99.90;;;;;;5072173;28;20056;-51
2022/08/21 01:01:17;;;;;;;4.75;3.53;;;30.60;99.90;;;;;;5084900;22;20052;-54
2022/08/21 01:03:43;;;;;;;3.85;3.22;;;30.60;99.90;;;;;;5072102;28;20488;-54
2022/08/21 01:06:09;;;;;;;4.03;3.10;;;30.60;99.90;;;;;;5071581;28;20150;-55
2022/08/21 01:08:35;;;;;;;3.60;3.30;;;30.60;99.90;;;;;;5071914;28;20017;-54
2022/08/21 01:11:03;;;;;;;3.85;3.35;;;30.60;99.90;;;;;;5071769;28;20510;-54
2022/08/21 01:13:32;;;;;;;3.85;3.45;;;30.60;99.90;;;;;;5071936;28;20468;-53
2022/08/21 01:16:01;;;;;;;3.40;3.10;;;30.50;99.90;;;;;;5071943;28;20384;-56
2022/08/21 01:18:28;;;;;;;4.45;3.50;;;30.50;99.90;;;;;;5071857;28;20039;-54
2022/08/21 01:21:02;;;;;;;4.55;3.53;;;30.50;99.90;;;;;;5054109;28;20483;-54
2022/08/21 01:23:28;;;;;;;4.00;3.60;;;30.50;99.90;;;;;;5071814;28;20036;-53
2022/08/21 01:25:54;;;;;;;3.72;3.42;;;30.50;99.90;;;;;;5071627;28;20028;-55
2022/08/21 01:28:21;;;;;;;3.97;3.45;;;30.50;99.90;;;;;;5071653;28;20029;-55
2022/08/21 01:30:50;;;;;;;4.75;4.00;;;30.50;99.90;;;;;;5071409;28;20036;-55
2022/08/21 01:33:21;;;;;;;5.10;3.70;;;30.50;99.90;;;;;;5071440;28;20124;-54
2022/08/21 01:35:47;;;;;;;4.95;4.05;;;30.50;99.90;;;;;;5071463;28;20025;-52
2022/08/21 01:38:12;;;;;;;3.80;3.30;;;30.50;99.90;;;;;;5071746;28;20097;-53
2022/08/21 01:40:38;;;;;;;3.40;3.10;;;30.50;99.90;;;;;;5071462;28;20024;-54
2022/08/21 01:43:04;;;;;;;4.30;3.42;;;30.50;99.90;;;;;;5071451;28;20029;-53
2022/08/21 01:45:31;;;;;;;4.50;3.70;;;30.50;99.90;;;;;;5071305;28;20028;-55
2022/08/21 01:47:56;;;;;;;3.47;3.17;;;30.40;99.90;;;;;;5071369;28;20040;-55
2022/08/21 01:50:23;;;;;;;3.70;3.30;;;30.40;99.90;;;;;;5071323;28;20021;-55
2022/08/21 01:52:49;;;;;;;3.72;3.08;;;30.40;99.90;;;;;;5071247;28;20032;-54
2022/08/21 01:55:17;;;;;;;3.40;3.10;;;30.40;99.90;;;;;;5071453;28;20017;-54
2022/08/21 01:57:44;;;;;;;4.88;3.63;;;30.40;99.90;;;;;;5071412;28;20040;-54
2022/08/21 02:00:13;;;;;;;4.13;3.15;;;30.40;99.90;;;;;;5071557;28;20059;-54
2022/08/21 02:02:40;;;;;;;4.45;3.28;;;30.40;99.90;;;;;;5071112;28;20419;-55
2022/08/21 02:05:08;;;;;;;3.15;2.85;;;30.40;99.90;;;;;;5053180;28;20032;-54
2022/08/21 02:07:40;;;;;;;4.00;3.58;;;30.40;99.90;;;;;;5071196;28;20047;-54
2022/08/21 02:10:08;;;;;;;3.83;3.42;;;30.40;99.90;;;;;;5071017;28;20017;-54
2022/08/21 02:12:34;;;;;;;4.05;3.38;;;30.30;99.90;;;;;;5071079;28;20495;-54
2022/08/21 02:15:00;;;;;;;4.07;3.67;;;30.30;99.90;;;;;;5036483;28;20111;-55
2022/08/21 02:17:26;;;;;;;3.90;3.40;;;30.30;99.90;;;;;;5071056;28;20028;-54
2022/08/21 02:19:52;;;;;;;3.67;3.28;;;30.30;99.90;;;;;;5074293;28;20507;-54
2022/08/21 02:22:18;;;;;;;3.70;3.30;;;30.30;99.90;;;;;;5075124;28;20115;-54
2022/08/21 02:24:44;;;;;;;3.92;3.25;;;30.30;99.90;;;;;;5075330;28;20025;-54
2022/08/21 02:27:09;;;;;;;4.07;3.38;;;30.30;99.90;;;;;;5075026;28;20024;-53
2022/08/21 02:29:35;;;;;;;4.07;3.15;;;30.30;99.90;;;;;;5074889;28;20028;-54
2022/08/21 02:32:01;;;;;;;3.90;3.25;;;30.30;99.90;;;;;;5074820;28;20161;-53
2022/08/21 02:34:27;;;;;;;3.35;3.05;;;30.30;99.90;;;;;;5074775;28;20020;-53
2022/08/21 02:36:52;;;;;;;3.33;3.00;;;30.30;99.90;;;;;;5074858;28;20037;-55
2022/08/21 02:39:19;;;;;;;3.90;3.00;;;30.30;99.90;;;;;;5074729;28;20540;-55
2022/08/21 02:41:45;;;;;;;3.67;3.28;;;30.30;99.90;;;;;;5074807;28;20082;-54
2022/08/21 02:44:11;;;;;;;4.10;3.25;;;30.20;99.90;;;;;;5074750;28;20408;-54
2022/08/21 02:46:36;;;;;;;3.85;2.90;;;30.20;99.90;;;;;;5074580;28;20031;-54
2022/08/21 02:49:02;;;;;;;3.10;2.80;;;30.20;99.90;;;;;;5074545;28;20107;-54
2022/08/21 02:51:28;;;;;;;4.13;3.17;;;30.20;99.90;;;;;;5074372;28;20068;-54
2022/08/21 02:53:54;;;;;;;5.53;3.42;;;30.20;99.90;;;;;;5074469;28;20063;-55
2022/08/21 02:56:21;;;;;;;3.35;3.05;;;30.20;99.90;;;;;;5074557;28;20111;-54
2022/08/21 02:58:51;;;;;;;5.25;3.60;;;30.20;99.90;;;;;;5074552;28;20433;-53
2022/08/21 03:01:17;;;;;;;3.50;3.20;;;30.20;99.90;;;;;;5074784;28;20088;-54
2022/08/21 03:03:46;;;;;;;3.97;3.43;;;30.20;99.90;;;;;;5074400;28;20523;-54
2022/08/21 03:06:14;;;;;;;3.55;3.25;;;30.20;99.90;;;;;;5074164;28;20029;-54
2022/08/21 03:08:40;;;;;;;3.30;2.80;;;30.20;99.90;;;;;;5074378;28;20024;-54
2022/08/21 03:11:06;;;;;;;3.25;2.95;;;30.10;99.90;;;;;;5074121;28;20028;-54
2022/08/21 03:13:33;;;;;;;3.08;2.72;;;30.10;99.90;;;;;;5074030;28;20054;-54
2022/08/21 03:15:58;;;;;;;3.47;2.90;;;30.20;99.90;;;;;;5074048;28;20032;-54
2022/08/21 03:18:24;;;;;;;3.20;2.53;;;30.10;99.90;;;;;;5074210;28;20037;-55
2022/08/21 03:20:50;;;;;;;3.10;2.67;;;30.10;99.90;;;;;;5074208;28;20499;-54
2022/08/21 03:23:17;;;;;;;3.33;3.03;;;30.10;99.90;;;;;;5074039;28;20054;-54
2022/08/21 03:25:44;;;;;;;3.83;2.88;;;30.10;99.90;;;;;;5073968;28;20136;-54
2022/08/21 03:28:16;;;;;;;3.37;2.87;;;30.10;99.90;;;;;;5073937;28;20472;-54
2022/08/21 03:30:43;;;;;;;4.00;2.80;;;30.10;99.90;;;;;;5073185;28;20025;-55
2022/08/21 03:33:09;;;;;;;;;;;30.00;99.90;;;;;;5074333;28;20024;-54
2022/08/21 03:35:35;;;;;;;3.67;3.00;;;30.10;99.90;;;;;;5073626;28;20003;-54
2022/08/21 03:38:01;;;;;;;6.25;2.72;;;30.00;99.90;;;;;;5073814;28;20115;-54
2022/08/21 03:40:27;;;;;;;3.33;3.00;;;30.00;99.90;;;;;;5073558;28;20020;-54
2022/08/21 03:42:52;;;;;;;4.65;2.80;;;30.00;99.90;;;;;;5073656;28;20025;-54
2022/08/21 03:45:19;;;;;;;3.63;3.13;;;30.00;99.90;;;;;;5073700;28;20381;-55
2022/08/21 03:48:14;;;;;;;3.28;2.70;;;30.00;99.90;;;;;;5073617;28;20075;-55
2022/08/21 03:50:43;;;;;;;3.63;2.80;;;30.00;99.90;;;;;;5042715;28;20078;-56
2022/08/21 03:53:11;;;;;;;3.55;2.90;;;29.90;99.90;;;;;;5073577;28;20033;-55
2022/08/21 03:55:37;;;;;;;3.08;2.45;;;29.90;99.90;;;;;;5073339;28;20032;-53
2022/08/21 03:58:03;;;;;;;3.53;2.58;;;30.00;99.90;;;;;;5073467;28;20150;-53
2022/08/21 04:00:29;;;;;;;3.30;2.88;;;29.90;99.90;;;;;;5073900;28;20611;-54
2022/08/21 04:02:55;;;;;;;3.05;2.75;;;29.90;99.90;;;;;;5073716;28;20107;-54
2022/08/21 04:05:26;;;;;;;3.15;2.55;;;29.90;99.90;;;;;;5073399;28;20031;-53
2022/08/21 04:08:01;;;;;;;2.55;2.30;;;29.90;99.90;;;;;;5073368;28;20020;-54
2022/08/21 04:10:30;;;;;;;3.20;2.83;;;29.90;99.90;;;;;;5073270;28;20412;-54
2022/08/21 04:12:56;;;;;;;2.50;2.28;;;29.90;99.90;;;;;;5072892;28;20028;-55
2022/08/21 04:15:24;;;;;;;3.00;2.70;;;29.90;99.90;;;;;;5073137;28;20062;-54
2022/08/21 04:17:49;;;;;;;;;;;29.90;99.90;;;;;;5073582;28;20032;-55
2022/08/21 04:20:16;;;;;;;2.63;2.42;;;29.90;99.90;;;;;;5073047;28;19912;-55
2022/08/21 04:22:44;;;;;;;2.67;2.47;;;29.90;99.90;;;;;;5072892;28;20028;-54
2022/08/21 04:25:10;;;;;;;;;;;29.90;99.90;;;;;;5073285;28;20020;-54
2022/08/21 04:27:36;;;;;;;2.95;2.60;;;29.90;99.90;;;;;;5072743;28;19908;-54
2022/08/21 04:30:02;;;;;;;3.70;2.65;;;29.90;99.90;;;;;;5072702;28;20070;-54
2022/08/21 04:32:28;;;;;;;2.20;2.00;;;29.80;99.90;;;;;;5072533;28;20075;-54
2022/08/21 04:35:04;;;;;;;2.60;2.40;;;29.80;99.90;;;;;;5072652;28;20071;-55
2022/08/21 04:37:30;;;;;;;3.22;2.63;;;29.80;99.90;;;;;;5072377;28;20033;-54
2022/08/21 04:39:57;;;;;;;2.77;2.53;;;29.80;99.90;;;;;;5072681;28;20021;-53
2022/08/21 04:42:24;;;;;;;3.58;2.60;;;29.80;99.90;;;;;;5071841;28;20035;-53
2022/08/21 04:44:51;;;;;;;2.67;2.47;;;29.80;99.90;;;;;;5072212;28;20558;-53
2022/08/21 04:47:20;;;;;;;2.65;2.35;;;29.80;99.90;;;;;;5072327;28;20024;-53
2022/08/21 04:49:46;;;;;;;3.05;2.40;;;29.80;99.90;;;;;;5054885;28;20498;-53
2022/08/21 04:52:15;;;;;;;3.20;2.60;;;29.80;99.90;;;;;;5072144;28;20040;-52
2022/08/21 04:54:43;;;;;;;3.05;2.40;;;29.80;99.90;;;;;;5072161;28;20024;-52
2022/08/21 04:57:10;;;;;;;3.40;2.72;;;29.80;99.90;;;;;;5054109;28;20036;-53
2022/08/21 04:59:49;;;;;;;2.70;2.47;;;29.80;99.90;;;;;;5071979;28;20535;-55
2022/08/21 05:02:15;;;;;;;2.67;2.47;;;29.80;99.90;;;;;;5071950;28;20048;-53
2022/08/21 05:04:49;;;;;;;2.45;2.25;;;29.70;99.90;;;;;;5071916;28;20147;-53
2022/08/21 05:07:23;;;;;;;2.40;2.20;;;29.80;99.90;;;;;;5071949;28;20032;-53
2022/08/21 05:09:49;;;;;;;3.85;2.13;;;29.80;99.90;;;;;;5072026;28;20029;-54
2022/08/21 05:12:15;;;;;;;7.00;2.35;;;29.70;99.90;;;;;;5071800;28;20064;-55
2022/08/21 05:14:42;;;;;;;3.47;2.30;;;29.70;99.90;;;;;;5071748;28;20689;-54
2022/08/21 05:17:08;;;;;;;2.20;2.00;;;29.70;99.90;;;;;;5071820;28;20059;-54
2022/08/21 05:19:35;;;;;;;3.28;2.17;;;29.70;99.90;;;;;;5071777;28;20032;-54
2022/08/21 05:22:00;;;;;;;4.28;2.03;;;29.70;99.90;;;;;;5053710;28;20030;-54
2022/08/21 05:24:27;;;;;;;5.70;2.53;;;29.70;99.90;;;;;;5071988;28;20025;-54
2022/08/21 05:26:53;;;;;;;2.65;2.38;;;29.70;99.90;;;;;;5053817;28;20047;-53
2022/08/21 05:29:19;;;;;;;3.38;2.30;;;29.70;99.90;;;;;;5071624;28;20064;-52
2022/08/21 05:31:46;;;;;;;3.17;2.40;;;29.70;99.90;;;;;;5071621;28;20035;-52
2022/08/21 05:34:15;;;;;;;2.47;2.28;;;29.70;99.90;;;;;;5071518;28;20020;-52
2022/08/21 05:36:40;;;;;;;2.35;2.15;;;29.70;99.90;;;;;;5071529;28;20034;-53
2022/08/21 05:39:06;;;;;;;2.88;2.10;;;29.70;99.90;;;;;;5071502;28;20443;-53
2022/08/21 05:41:32;;;;;;;2.35;2.05;;;29.70;99.90;;;;;;5071404;28;20032;-55
2022/08/21 05:43:58;;;;;;;3.30;2.30;;;29.60;99.90;;;;;;5071592;28;20024;-54
2022/08/21 05:46:24;;;;;;;2.97;2.40;;;29.60;99.90;;;;;;5071217;28;20028;-54
2022/08/21 05:48:50;;;;;;;2.60;2.30;;;29.60;99.90;;;;;;5071275;28;20025;-54
2022/08/21 05:51:16;;;;;;;3.15;2.05;;;29.60;99.90;;;;;;5053134;28;20086;-55
2022/08/21 05:53:43;;;;;;;2.83;2.47;;;29.60;99.90;;;;;;5071187;28;20107;-53
2022/08/21 05:56:10;;;;;;;2.40;2.03;;;29.60;99.90;;;;;;5071200;28;20472;-55
2022/08/21 05:58:36;;;;;;;;;;;29.60;99.90;;;;;;5071575;28;20418;-55
2022/08/21 06:01:03;;;;;;;2.30;1.90;;;29.60;99.90;;;;;;5070931;28;19916;-55
2022/08/21 06:03:33;;;;;;;3.95;2.38;;;29.60;99.90;;;;;;5071171;28;20043;-55
2022/08/21 06:06:00;;;;;;;3.00;2.40;;;29.60;99.90;;;;;;5053341;28;20032;-56
2022/08/21 06:08:27;;;;;;;2.42;2.20;;;29.50;99.90;;;;;;5071252;28;20024;-55
2022/08/21 06:10:55;;;;;;;3.28;2.83;;;29.60;99.90;;;;;;5071023;28;20025;-55
2022/08/21 06:13:22;;;;;;;2.45;2.00;;;29.60;99.90;;;;;;5071047;28;20032;-54
2022/08/21 06:15:48;;;;;;;2.88;2.30;;;29.60;99.90;;;;;;5071060;28;20422;-54
2022/08/21 06:18:15;;;;;;;2.67;1.98;;;29.60;99.90;;;;;;5071041;28;20029;-54
2022/08/21 06:20:41;;;;;;;2.60;2.30;;;29.60;99.90;;;;;;5071124;28;20048;-54
2022/08/21 06:23:08;;;;;;;2.63;2.10;;;29.50;99.90;;;;;;5070902;28;20025;-52
2022/08/21 06:25:34;;;;;;;3.78;2.40;;;29.50;99.90;;;;;;5070860;28;20024;-53
2022/08/21 06:28:03;;;;;;;2.45;1.90;;;29.60;99.90;;;;;;5071098;28;20109;-54
2022/08/21 06:30:29;;;;;;;2.97;1.95;;;29.50;99.90;;;;;;5071046;28;20024;-54
2022/08/21 06:32:55;;;;;;;2.53;1.95;;;29.60;99.90;;;;;;5070840;28;20032;-54
2022/08/21 06:35:21;;;;;;;2.25;1.95;;;29.60;99.90;;;;;;5070743;28;20036;-54
2022/08/21 06:37:46;;;;;;;2.58;2.38;;;29.60;99.90;;;;;;5070825;28;20499;-54
2022/08/21 06:40:12;;;;;;;3.92;2.10;;;29.60;99.90;;;;;;5052869;28;20070;-53
2022/08/21 06:42:39;;;;;;;2.72;2.40;;;29.60;99.90;;;;;;5070763;28;20078;-54
2022/08/21 06:45:05;;;;;;;2.77;2.17;;;29.60;99.90;;;;;;5070714;28;20074;-53
2022/08/21 06:47:31;;;;;;;2.13;1.75;;;29.60;99.90;;;;;;5070695;28;20261;-54
2022/08/21 06:49:57;;;;;;;3.00;2.38;;;29.60;99.90;;;;;;5070717;28;20020;-53
2022/08/21 06:52:23;;;;;;;4.53;2.20;;;29.60;99.90;;;;;;5052630;28;20033;-53
2022/08/21 06:54:48;;;;;;;3.95;2.20;;;29.60;99.90;;;;;;5070642;28;20108;-53
2022/08/21 06:57:14;;;;;;;2.30;1.90;;;29.70;99.90;;;;;;5070767;28;20476;-54
2022/08/21 06:59:40;;;;;;;2.20;2.00;;;29.70;99.90;;;;;;5070429;28;20078;-53
2022/08/21 07:02:05;;;;;;;2.65;2.35;;;29.70;99.90;;;;;;5070705;28;20036;-55
2022/08/21 07:04:31;;;;;;;2.65;1.85;;;29.70;99.90;;;;;;5071474;28;20086;-56
2022/08/21 07:06:57;;;;;;;4.80;2.42;;;29.70;99.90;;;;;;5056348;28;20028;-55
2022/08/21 07:09:23;;;;;;;3.80;2.35;;;29.70;99.90;;;;;;5074065;28;20476;-54
2022/08/21 07:11:52;;;;;;;3.45;2.05;;;29.70;99.90;;;;;;5073926;28;20058;-53
2022/08/21 07:14:17;;;;;;;2.05;1.88;;;29.70;99.90;;;;;;5073811;28;20460;-53
2022/08/21 07:16:43;;;;;;;3.10;2.42;;;29.70;99.90;;;;;;5074134;28;20028;-54
2022/08/21 07:19:09;;;;;;;2.22;1.98;;;29.80;99.90;;;;;;5073999;28;20031;-53
2022/08/21 07:21:35;;;;;;;2.40;1.95;;;29.70;99.90;;;;;;5074162;28;20433;-54
2022/08/21 07:24:01;;;;;;;3.38;2.30;;;29.80;99.90;;;;;;5073874;28;20024;-52
2022/08/21 07:26:26;;;;;;;2.60;2.03;;;29.80;99.90;;;;;;5074028;28;20366;-53
2022/08/21 07:28:53;;;;;;;3.78;2.40;;;29.80;99.90;;;;;;5073828;28;20025;-53
2022/08/21 07:31:21;;;;;;;2.85;2.10;;;29.80;99.90;;;;;;5073790;28;20479;-53
2022/08/21 07:33:47;;;;;;;4.22;2.17;;;29.80;99.90;;;;;;5074057;28;20040;-53
2022/08/21 07:36:13;;;;;;;3.22;2.08;;;29.80;99.90;;;;;;5073586;28;20020;-53
2022/08/21 07:38:39;;;;;;;2.67;2.20;;;29.80;99.90;;;;;;5073700;28;20029;-53
2022/08/21 07:41:19;;;;;;;3.05;2.03;;;29.90;99.90;;;;;;5073729;28;20021;-53
2022/08/21 07:43:46;;;;;;;2.67;1.83;;;29.90;99.90;;;;;;5073392;28;20495;-53
2022/08/21 07:46:14;;;;;;;4.05;2.25;;;29.90;99.90;;;;;;5073570;28;20024;-53
2022/08/21 07:48:39;;;;;;;2.33;2.08;;;29.90;99.90;;;;;;5073398;28;20052;-54
2022/08/21 07:51:12;;;;;;;3.45;2.30;;;29.90;99.90;;;;;;5073599;28;20145;-54
2022/08/21 07:53:39;;;;;;;3.08;2.28;;;29.90;99.90;;;;;;5073479;28;20469;-53
2022/08/21 07:56:06;;;;;;;3.17;2.40;;;29.90;99.90;;;;;;5073421;28;20027;-53
2022/08/21 07:58:32;;;;;;;4.00;1.95;;;30.00;99.90;;;;;;5073224;28;20104;-53
2022/08/21 08:00:58;;;;;;;3.35;2.45;;;29.90;99.90;;;;;;5072931;28;20044;-55
2022/08/21 08:03:24;;;;;;;3.88;2.47;;;29.90;99.90;;;;;;5073059;28;20092;-54
2022/08/21 08:05:50;;;;;;;4.13;2.05;;;29.90;99.90;;;;;;5073262;28;20167;-53
2022/08/21 08:08:16;;;;;;;4.40;2.10;;;30.00;99.90;;;;;;5073006;28;20029;-53
2022/08/21 08:10:43;;;;;;;4.85;2.38;;;30.00;99.90;;;;;;5072976;28;20028;-53
2022/08/21 08:13:09;;;;;;;4.78;2.50;;;30.00;99.90;;;;;;5073210;28;20508;-53
2022/08/21 08:15:36;;;;;;;5.80;2.83;;;30.00;99.90;;;;;;5072890;28;20035;-53
2022/08/21 08:18:03;;;;;;;4.97;2.90;;;30.00;99.90;;;;;;5072877;28;20480;-53
2022/08/21 08:20:29;;;;;;;3.78;2.40;;;30.00;99.90;;;;;;5054702;28;20481;-53
2022/08/21 08:22:55;;;;;;;2.63;2.20;;;30.00;99.90;;;;;;5072747;28;20024;-53
2022/08/21 08:25:22;;;;;;;3.83;2.60;;;30.00;99.90;;;;;;5072830;28;20054;-53
2022/08/21 08:27:48;;;;;;;5.63;3.10;;;30.00;99.90;;;;;;5072553;28;20040;-54
2022/08/21 08:30:16;;;;;;;3.88;2.38;;;30.00;99.90;;;;;;5072626;28;20108;-53
2022/08/21 08:32:42;;;;;;;2.78;2.38;;;30.00;99.90;;;;;;5072539;28;20420;-53
2022/08/21 08:35:09;;;;;;;3.20;2.30;;;30.00;99.90;;;;;;5072765;28;20062;-54
2022/08/21 08:37:37;;;;;;;3.22;2.25;;;30.10;99.90;;;;;;5072413;28;20033;-53
2022/08/21 08:40:05;;;;;;;2.67;2.10;;;30.10;99.90;;;;;;5072499;28;20067;-54
2022/08/21 08:42:34;;;;;;;2.35;2.00;;;30.10;99.90;;;;;;5072474;28;20017;-53
2022/08/21 08:45:23;;;;;;;2.45;2.20;;;30.10;99.90;;;;;;5072423;28;20024;-54
2022/08/21 08:48:03;;;;;;;3.75;2.38;;;30.00;99.90;;;;;;5072303;28;20039;-54
2022/08/21 08:50:54;;;;;;;3.65;2.58;;;30.10;99.90;;;;;;5072278;28;20472;-54
2022/08/21 08:53:29;;;;;;;3.88;2.58;;;30.10;99.90;;;;;;5071948;28;20120;-55
2022/08/21 08:55:55;;;;;;;2.40;2.00;;;30.10;99.90;;;;;;5071959;28;20107;-54
2022/08/21 08:58:26;;;;;;;3.63;2.90;;;30.10;99.90;;;;;;5071824;28;20135;-54
2022/08/21 09:00:54;;;;;;;2.72;2.05;;;30.10;99.90;;;;;;5071760;28;20393;-54
2022/08/21 09:03:23;;;;;;;4.35;2.53;;;30.10;99.90;;;;;;5071790;28;20050;-55
2022/08/21 09:06:11;;;;;;;3.30;2.45;;;30.10;99.90;;;;;;5071842;28;20108;-54
2022/08/21 09:08:55;;;;;;;3.40;2.17;;;30.10;99.90;;;;;;5071849;28;20058;-53
2022/08/21 09:11:27;;;;;;;3.47;2.50;;;30.10;99.90;;;;;;5071596;28;20071;-53
2022/08/21 09:14:05;;;;;;;4.22;3.17;;;30.10;99.90;;;;;;5071710;28;20476;-53
2022/08/21 09:16:55;;;;;;;7.95;2.55;;;30.20;99.90;;;;;;5071460;28;20048;-54
2022/08/21 09:19:48;;;;;;;4.53;2.65;;;30.20;99.90;;;;;;5071809;28;20192;-53
2022/08/21 09:22:30;;;;;;;4.40;2.72;;;30.20;99.90;;;;;;5071543;28;20033;-54
2022/08/21 09:25:26;;;;;;;2.92;2.58;;;30.20;99.90;;;;;;5071250;28;20021;-53
2022/08/21 09:27:52;;;;;;;3.80;3.00;;;30.20;99.90;;;;;;5069924;28;20471;-53
2022/08/21 09:30:24;;;;;;;3.05;2.75;;;30.20;99.90;;;;;;5071351;28;20036;-55
2022/08/21 09:32:49;;;;;;;3.35;2.78;;;30.20;99.90;;;;;;5071218;28;20029;-54
2022/08/21 09:35:22;;;;;;;3.75;3.03;;;30.20;99.90;;;;;;5071358;28;20019;-53
2022/08/21 09:37:55;;;;;;;4.78;2.83;;;30.20;99.90;;;;;;5071439;28;20082;-52
2022/08/21 09:40:32;;;;;;;4.63;3.13;;;30.20;99.90;;;;;;5071281;28;20021;-53
2022/08/21 09:43:13;;;;;;;3.70;3.20;;;30.20;99.90;;;;;;5071131;28;20020;-52
2022/08/21 09:45:41;;;;;;;4.60;3.67;;;30.20;99.90;;;;;;5071436;28;20021;-52
2022/08/21 09:48:24;;;;;;;3.72;3.08;;;30.20;99.90;;;;;;5071117;28;20403;-52
2022/08/21 09:50:50;;;;;;;3.95;3.28;;;30.20;99.90;;;;;;5053018;28;20066;-53
2022/08/21 09:53:26;;;;;;;4.60;3.65;;;30.20;99.90;;;;;;5071094;28;20067;-53
2022/08/21 09:58:46;;;;;;;5.15;2.95;;;30.20;99.90;;;;;;5071572;28;20074;-53
2022/08/21 10:01:19;;;;;;;6.18;3.30;;;30.20;99.90;;;;;;5071279;28;20056;-53
2022/08/21 10:03:46;;;;;;;6.78;3.33;;;30.20;99.90;;;;;;5053774;28;20029;-51
2022/08/21 10:06:25;;;;;;;4.30;3.00;;;30.20;99.90;;;;;;5070847;28;20170;-53
2022/08/21 10:08:51;;;;;;;5.50;3.58;;;30.20;99.90;;;;;;5070878;28;20035;-54
2022/08/21 10:11:17;;;;;;;5.97;4.13;;;30.30;99.90;;;;;;5071175;28;20025;-52
2022/08/21 10:14:24;;;;;;;6.00;4.05;;;30.30;99.90;;;;;;5071083;28;20039;-52
2022/08/21 10:17:29;;;;;;;4.30;3.55;;;30.30;99.90;;;;;;5069390;28;20037;-52
2022/08/21 10:20:06;;;;;;;3.40;3.10;;;30.30;99.90;;;;;;5070882;28;20029;-53
2022/08/21 10:22:53;;;;;;;4.50;3.72;;;30.30;99.90;;;;;;5053001;28;20024;-53
2022/08/21 10:25:50;;;;;;;4.35;3.95;;;30.30;99.90;;;;;;5070931;28;20395;-54
2022/08/21 10:28:20;;;;;;;5.65;3.80;;;30.30;99.90;;;;;;5066520;28;20040;-53
2022/08/21 10:31:00;;;;;;;4.93;3.53;;;30.30;99.90;;;;;;5071181;28;20017;-53
2022/08/21 10:33:47;;;;;;;7.55;4.05;;;30.40;99.90;;;;;;5070691;28;20032;-53
2022/08/21 10:36:26;;;;;;;;;;;30.40;99.90;;;;;;5053173;28;20021;-53
2022/08/21 10:39:09;;;;;;;4.18;3.63;;;30.40;99.90;;;;;;5070744;28;19948;-53
2022/08/21 10:41:41;;;;;;;6.55;4.60;;;30.40;99.90;;;;;;5074742;28;20188;-53
2022/08/21 10:44:21;;;;;;;4.85;3.67;;;30.40;99.90;;;;;;5074628;28;20023;-52
2022/08/21 10:46:57;;;;;;;5.20;4.32;;;30.40;99.90;;;;;;5074914;28;20492;-54
2022/08/21 10:49:51;;;;;;;4.97;4.10;;;30.30;99.90;;;;;;5074421;28;20034;-53
2022/08/21 10:52:31;;;;;;;4.45;3.80;;;30.40;99.90;;;;;;5074442;28;20437;-52
2022/08/21 10:55:09;;;;;;;6.25;4.80;;;30.40;99.90;;;;;;5074558;28;20032;-54
2022/08/21 10:57:47;;;;;;;5.18;4.32;;;30.40;99.90;;;;;;5074324;28;20013;-53
2022/08/21 11:00:18;;;;;;;6.00;3.88;;;30.40;99.90;;;;;;5074215;28;20052;-54
2022/08/21 11:02:50;;;;;;;4.93;3.97;;;30.40;99.90;;;;;;5074199;28;20032;-52
2022/08/21 11:05:27;;;;;;;6.38;3.95;;;30.40;99.90;;;;;;5074462;28;20063;-52
2022/08/21 11:08:13;;;;;;;4.93;4.03;;;30.50;99.90;;;;;;5074278;28;20126;-52
2022/08/21 11:10:45;;;;;;;4.60;4.07;;;30.50;99.90;;;;;;5074120;28;20033;-54
2022/08/21 11:13:36;;;;;;;5.68;4.20;;;30.50;99.90;;;;;;5074052;28;20041;-54
2022/08/21 11:16:29;;;;;;;4.90;3.65;;;30.50;99.90;;;;;;5074079;28;20063;-53
2022/08/21 11:19:21;;;;;;;5.88;4.25;;;30.50;99.90;;;;;;5073907;28;20029;-53
2022/08/21 11:22:00;;;;;;;4.97;4.13;;;30.50;99.90;;;;;;5053183;28;20079;-52
2022/08/21 11:24:38;;;;;;;5.88;4.13;;;30.50;99.90;;;;;;5073987;28;20024;-54
2022/08/21 11:27:25;;;;;;;4.60;3.90;;;30.60;99.90;;;;;;5073866;28;20024;-54
2022/08/21 11:29:57;;;;;;;5.28;4.35;;;30.60;99.90;;;;;;5074014;28;20031;-54
2022/08/21 11:32:45;;;;;;;5.40;4.20;;;30.60;99.90;;;;;;5073692;28;20029;-53
2022/08/21 11:35:19;;;;;;;4.53;3.55;;;30.60;99.90;;;;;;5073688;28;20070;-54
2022/08/21 11:37:56;;;;;;;4.97;4.20;;;30.60;99.90;;;;;;5073569;28;20028;-54
2022/08/21 11:40:47;;;;;;;5.88;4.10;;;30.60;99.90;;;;;;5073868;28;20032;-53
2022/08/21 11:43:56;;;;;;;5.55;4.32;;;30.60;99.90;;;;;;5073591;28;20364;-50
2022/08/21 11:46:47;;;;;;;6.95;5.10;;;30.60;99.90;;;;;;4992034;28;20059;-52
2022/08/21 11:49:42;;;;;;;6.53;4.72;;;30.60;99.90;;;;;;4991579;28;20117;-52
2022/08/21 11:52:13;;;;;;;5.03;3.85;;;30.60;99.90;;;;;;5058787;28;20049;-53
2022/08/21 11:54:54;;;;;;;4.45;3.53;;;30.70;99.90;;;;;;5073233;28;20016;-54
2022/08/21 11:58:01;;;;;;;5.60;4.10;;;30.70;99.90;;;;;;5055362;28;20484;-53
2022/08/21 12:00:37;;;;;;;6.38;4.38;;;30.70;99.90;;;;;;5010745;28;20086;-55
2022/08/21 12:03:20;;;;;;;6.70;3.97;;;30.70;99.90;;;;;;5064521;28;20036;-55
2022/08/21 12:05:57;;;;;;;9.65;4.60;;;30.70;99.90;;;;;;5073166;28;20043;-53
2022/08/21 12:08:33;;;;;;;6.55;4.13;;;30.70;99.90;;;;;;5073309;28;20095;-52
2022/08/21 12:11:08;;;;;;;5.68;4.20;;;30.70;99.90;;;;;;5072907;28;20029;-53
2022/08/21 12:13:38;;;;;;;4.97;4.03;;;30.70;99.90;;;;;;5072814;28;20074;-53
2022/08/21 12:16:27;;;;;;;8.75;4.00;;;30.80;99.90;;;;;;5072929;28;20093;-53
2022/08/21 12:19:04;;;;;;;4.53;4.00;;;30.80;99.90;;;;;;5072858;28;20404;-53
2022/08/21 12:21:30;;;;;;;4.25;3.67;;;30.80;99.90;;;;;;5072873;28;20032;-53
2022/08/21 12:24:36;;;;;;;5.50;3.95;;;30.80;99.90;;;;;;5072938;28;20072;-53
2022/08/21 12:27:21;;;;;;;5.80;3.75;;;30.80;99.90;;;;;;5025520;28;20188;-53
2022/08/21 12:29:53;;;;;;;4.78;3.97;;;30.80;99.90;;;;;;5072698;28;20036;-53
2022/08/21 12:32:25;;;;;;;5.07;3.83;;;30.80;99.90;;;;;;5072581;28;20044;-54
2022/08/21 12:35:15;;;;;;;5.43;4.40;;;30.90;99.90;;;;;;5072651;28;20048;-52
2022/08/21 12:37:49;;;;;;;5.20;4.00;;;30.80;99.90;;;;;;5072189;28;20100;-53
2022/08/21 12:40:27;;;;;;;6.28;4.20;;;30.90;99.90;;;;;;5072143;28;20021;-52
2022/08/21 12:42:56;;;;;;;6.75;4.78;;;30.80;99.90;;;;;;5072526;28;20055;-53
2022/08/21 12:45:46;;;;;;;6.38;4.00;;;30.90;99.90;;;;;;5072289;28;20128;-53
2022/08/21 12:48:31;;;;;;;4.72;3.90;;;30.90;99.90;;;;;;5072228;28;20031;-52
2022/08/21 12:51:32;;;;;;;4.78;4.28;;;30.90;99.90;;;;;;5071997;28;20383;-52
2022/08/21 12:53:59;;;;;;;5.90;3.78;;;30.90;99.90;;;;;;5071951;28;20036;-53
2022/08/21 12:56:28;;;;;;;5.03;3.80;;;30.90;99.90;;;;;;5072200;28;20028;-53
2022/08/21 12:59:01;;;;;;;6.50;4.75;;;30.90;99.90;;;;;;5072049;28;20078;-54
2022/08/21 13:01:51;;;;;;;4.55;3.88;;;30.90;99.90;;;;;;5071726;28;20057;-52
2022/08/21 13:04:21;;;;;;;5.22;4.05;;;31.00;99.90;;;;;;5063884;28;20037;-53
2022/08/21 13:06:51;;;;;;;5.00;4.20;;;31.00;99.90;;;;;;5071766;28;20048;-53
2022/08/21 13:09:20;;;;;;;4.60;4.15;;;31.00;99.90;;;;;;5071713;28;20090;-51
2022/08/21 13:11:48;;;;;;;5.78;3.60;;;31.00;99.90;;;;;;5071624;28;20040;-53